< < Back
Terminal Aerodrome Forecast


Current Version              Previous Versions:   1  2  3  4  5  6  7  8  9  

Terminal Aerodrome Forecast

697
FTUS42 KGSP 310832 AAC
TAFGSP
TAF AMD
KGSP 310832Z 3109/0106 02003KT 6SM BR OVC012
      TEMPO 3109/3112 4SM BR OVC008
     FM311400 03005KT P6SM BKN020
     FM311600 04005KT P6SM SCT050
     FM010200 00000KT P6SM FEW060=

Latest METAR

810
SAUS70 KWBC 312100 RRG
MTRGSP
METAR KGSP 312053Z 27004KT 10SM CLR 31/16 A3006 RMK AO2 SLP167 T03110161
56013


USA.gov is the U.S. government's official web portal to all federal, state and local government web resources and services.